首页
METAR-TAF:

METAR-TAF

机场 :

多倫多皮爾遜國際機場

多伦多, 安大略省, 加拿大

纬度: 43-40N, 经度: 079-38W, 海拔: 173米

当前天气观测

该预报发布于21分钟前的17:00 UTC
风速13节,风向南转南东,有时为20节阵风,在之间变化
温度 21°C
湿度 56%
气压 1016 hPa
能見度: 24.1公里
少量云层高于5000英尺
散云层高于7000英尺
多云层高于22000英尺

METAR: CYYZ 171700Z 16013G20KT 100V180 15SM FEW050 SCT070 BKN220 21/12 A3001 RMK CU1AC2CI3 SLP164 DENSITY ALT 1300FT

时间: 13:21 (17:21 UTC)

预报

该预报发布于2小时和43分钟前的14:38 UTC
预报有效从17日的 15点(UTC)到 18日的 18点(UTC)
风速10节,风向
能見度: 10公里
散云层高于7000英尺
多云层高于9000英尺
从 17日的 1700点(UTC)
风速10节,风向东南
能見度: 10公里
散云层高于7000英尺
从 18日的 0200点(UTC)
风速3节,风向多变
能見度: 10公里
少量云层高于7000英尺
成为
从 18日的 04点(UTC)到 18日的 06点(UTC)
风速5节,风向东北
从 18日的 1500点(UTC)
风速5节,风向东南
能見度: 10公里
少量云层高于5000英尺
散云层高于20000英尺
成为
从 18日的 16点(UTC)到 18日的 18点(UTC)
风速12节,风向南转南东

TAF: CYYZ 171438Z 1715/1818 10010KT P6SM SCT070 BKN090 FM171700 14010KT P6SM SCT070 FM180200 VRB03KT P6SM FEW070 BECMG 1804/1806 04005KT FM181500 13005KT P6SM FEW050 SCT200 BECMG 1816/1818 15012KT RMK NXT FCST BY 171800Z

超过4000个机场的气象观测和天气预报(METAR&TAF报告)。

可查询的气象台以黄色和红色小点在地图上表示。

将鼠标移到小点上方,可查看气象台名称。

然后点击查看天气观测和预报。

如需切换地图:点击带黑十字的绿色按钮放大地图;点击带横线的绿色按钮缩小地图;或者点击绿色箭头查看邻近地区的地图。


METAR-TAF: